createdAt,value
2023-12-11T00:02:14.695Z,1.10
2023-12-11T00:04:43.111Z,1.13
2023-12-11T00:07:11.564Z,1.45
2023-12-11T00:09:39.843Z,1.30
2023-12-11T00:12:08.923Z,1.00
2023-12-11T00:14:37.797Z,0.80
2023-12-11T00:17:06.089Z,0.90
2023-12-11T00:19:34.211Z,1.20
2023-12-11T00:22:02.699Z,0.90
2023-12-11T00:24:31.833Z,1.17
2023-12-11T00:27:00.380Z,1.23
2023-12-11T00:29:28.539Z,0.97
2023-12-11T00:31:56.929Z,1.13
2023-12-11T00:34:25.273Z,1.13
2023-12-11T00:36:53.694Z,1.70
2023-12-11T00:39:21.911Z,1.10
2023-12-11T00:41:51.525Z,1.10
2023-12-11T00:44:19.768Z,1.00
2023-12-11T00:46:49.467Z,1.42
2023-12-11T00:49:17.915Z,1.10
2023-12-11T00:51:48.048Z,1.17
2023-12-11T00:54:16.430Z,1.07
2023-12-11T00:56:44.639Z,1.30
2023-12-11T00:59:13.224Z,1.20
2023-12-11T01:01:41.541Z,1.17
2023-12-11T01:04:10.139Z,1.00
2023-12-11T01:06:38.486Z,1.20
2023-12-11T01:09:06.962Z,1.30
2023-12-11T01:11:35.553Z,1.20
2023-12-11T01:14:04.314Z,1.27
2023-12-11T01:16:32.850Z,1.40
2023-12-11T01:19:01.561Z,1.27
2023-12-11T01:21:30.469Z,1.00
2023-12-11T01:23:58.857Z,1.45
2023-12-11T01:26:27.026Z,1.20
2023-12-11T01:28:55.542Z,1.20
2023-12-11T01:31:23.685Z,1.10
2023-12-11T01:33:52.082Z,1.00
2023-12-11T01:36:20.518Z,1.20
2023-12-11T01:38:49.419Z,1.15
2023-12-11T01:41:17.524Z,1.00
2023-12-11T01:43:55.556Z,1.17
2023-12-11T01:46:25.167Z,1.08
2023-12-11T01:48:55.254Z,1.35
2023-12-11T01:51:23.751Z,1.20
2023-12-11T01:53:53.248Z,1.10
2023-12-11T01:56:22.667Z,1.00
2023-12-11T01:58:51.069Z,1.00
2023-12-11T02:01:22.089Z,1.10
2023-12-11T02:03:50.549Z,1.10
2023-12-11T02:06:18.774Z,1.77
2023-12-11T02:08:48.003Z,1.00
2023-12-11T02:11:16.429Z,0.93
2023-12-11T02:13:44.636Z,1.00
2023-12-11T02:16:17.630Z,1.17
2023-12-11T02:18:46.294Z,1.00
2023-12-11T02:21:14.629Z,1.17
2023-12-11T02:24:01.156Z,1.00
2023-12-11T02:26:29.468Z,0.90
2023-12-11T02:28:57.528Z,1.38
2023-12-11T02:31:25.906Z,0.90
2023-12-11T02:33:54.127Z,0.90
2023-12-11T02:36:22.485Z,0.90
2023-12-11T02:38:50.804Z,0.95
2023-12-11T02:41:19.039Z,1.05
2023-12-11T02:43:47.155Z,1.05
2023-12-11T02:46:15.928Z,0.90
2023-12-11T02:48:44.282Z,1.10
2023-12-11T02:51:12.930Z,1.20
2023-12-11T02:53:41.190Z,1.33
2023-12-11T02:56:09.795Z,1.23
2023-12-11T02:58:37.928Z,1.13
2023-12-11T03:01:06.353Z,1.05
2023-12-11T03:03:34.560Z,1.45
2023-12-11T03:06:05.627Z,1.00
2023-12-11T03:08:34.036Z,0.90
2023-12-11T03:11:02.298Z,0.97
2023-12-11T03:13:30.550Z,0.95
2023-12-11T03:15:58.766Z,1.38
2023-12-11T03:18:27.114Z,1.10
2023-12-11T03:20:55.346Z,1.00
2023-12-11T03:23:23.572Z,1.17
2023-12-11T03:25:51.728Z,1.50
2023-12-11T03:28:19.986Z,1.30
2023-12-11T03:30:48.320Z,0.82
2023-12-11T03:33:17.982Z,1.10
2023-12-11T03:35:46.405Z,1.00
2023-12-11T03:38:14.543Z,1.05
2023-12-11T03:40:42.722Z,1.17
2023-12-11T03:43:12.552Z,1.02
2023-12-11T03:45:41.136Z,0.90
2023-12-11T03:48:09.670Z,1.20
2023-12-11T03:50:41.022Z,0.90
2023-12-11T03:53:11.852Z,0.90
2023-12-11T03:55:40.193Z,1.08
2023-12-11T03:58:08.398Z,1.10
2023-12-11T04:00:39.756Z,1.00
2023-12-11T04:03:08.181Z,1.00
2023-12-11T04:05:36.604Z,1.33
2023-12-11T04:08:05.201Z,1.25
2023-12-11T04:10:33.396Z,1.10
2023-12-11T04:13:04.178Z,1.03
2023-12-11T04:15:32.668Z,1.20
2023-12-11T04:18:01.318Z,1.13
2023-12-11T04:20:29.653Z,0.98
2023-12-11T04:22:57.840Z,0.80
2023-12-11T04:25:26.436Z,1.00
2023-12-11T04:27:54.707Z,0.90
2023-12-11T04:30:22.985Z,1.00
2023-12-11T04:32:51.148Z,0.98
2023-12-11T04:35:19.480Z,0.93
2023-12-11T04:37:47.746Z,1.70
2023-12-11T04:40:16.209Z,1.10
2023-12-11T04:42:44.844Z,0.98
2023-12-11T04:45:13.193Z,0.80
2023-12-11T04:47:41.782Z,1.00
2023-12-11T04:50:13.186Z,1.03
2023-12-11T04:52:41.388Z,1.08
2023-12-11T04:55:09.895Z,1.10
2023-12-11T04:57:38.311Z,1.30
2023-12-11T05:00:06.996Z,1.00
2023-12-11T05:02:35.323Z,0.90
2023-12-11T05:05:03.825Z,1.40
2023-12-11T05:07:32.350Z,1.73
2023-12-11T05:10:00.647Z,1.40
2023-12-11T05:12:29.355Z,1.77
2023-12-11T05:14:57.714Z,1.30
2023-12-11T05:17:25.918Z,1.15
2023-12-11T05:19:54.419Z,1.27
2023-12-11T05:22:22.906Z,1.27
2023-12-11T05:24:51.781Z,1.20
2023-12-11T05:27:20.429Z,1.10
2023-12-11T05:29:48.671Z,1.17
2023-12-11T05:32:17.013Z,1.38
2023-12-11T05:34:45.767Z,1.20
2023-12-11T05:37:14.099Z,1.50
2023-12-11T05:39:50.283Z,1.33
2023-12-11T05:42:25.930Z,1.33
2023-12-11T05:44:55.331Z,1.50
2023-12-11T05:47:23.706Z,1.40
2023-12-11T05:49:52.082Z,1.40
2023-12-11T05:52:20.494Z,1.60
2023-12-11T05:54:48.815Z,1.50
2023-12-11T05:57:17.130Z,1.42
2023-12-11T05:59:45.373Z,1.58
2023-12-11T06:02:13.996Z,1.30
2023-12-11T06:04:42.597Z,1.20
2023-12-11T06:07:11.397Z,1.45
2023-12-11T06:09:39.605Z,1.27
2023-12-11T06:12:08.302Z,1.30
2023-12-11T06:14:37.538Z,1.77
2023-12-11T06:17:05.928Z,1.37
2023-12-11T06:19:34.116Z,1.20
2023-12-11T06:22:02.500Z,1.50
2023-12-11T06:24:30.726Z,1.50
2023-12-11T06:26:58.976Z,1.50
2023-12-11T06:29:27.860Z,1.40
2023-12-11T06:31:56.673Z,2.00
2023-12-11T06:34:25.166Z,2.80
2023-12-11T06:36:53.605Z,2.78
2023-12-11T06:39:22.437Z,2.50
2023-12-11T06:41:50.651Z,1.70
2023-12-11T06:44:18.769Z,1.65
2023-12-11T06:46:49.046Z,1.60
2023-12-11T06:49:17.740Z,1.60
2023-12-11T06:51:46.469Z,1.77
2023-12-11T06:54:15.120Z,1.50
2023-12-11T06:56:43.369Z,1.85
2023-12-11T06:59:11.566Z,1.88
2023-12-11T07:01:40.155Z,1.80
2023-12-11T07:04:09.096Z,2.03
2023-12-11T07:06:39.443Z,1.93
2023-12-11T07:09:09.267Z,1.67
2023-12-11T07:11:37.573Z,1.60
2023-12-11T07:14:05.908Z,1.35
2023-12-11T07:16:37.167Z,1.85
2023-12-11T07:19:06.320Z,2.07
2023-12-11T07:21:34.848Z,2.10
2023-12-11T07:24:04.649Z,1.70
2023-12-11T07:26:33.489Z,1.70
2023-12-11T07:29:01.852Z,1.98
2023-12-11T07:31:30.167Z,2.53
2023-12-11T07:33:58.659Z,1.85
2023-12-11T07:36:27.084Z,1.80
2023-12-11T07:38:55.684Z,1.60
2023-12-11T07:41:24.749Z,1.58
2023-12-11T07:43:53.272Z,1.67
2023-12-11T07:46:23.407Z,1.60
2023-12-11T07:48:53.903Z,1.77
2023-12-11T07:51:22.923Z,1.60
2023-12-11T07:53:51.618Z,1.60
2023-12-11T07:56:23.233Z,1.77
2023-12-11T07:58:55.016Z,1.70
2023-12-11T08:01:23.464Z,1.45
2023-12-11T08:03:52.023Z,1.55
2023-12-11T08:06:20.589Z,1.52
2023-12-11T08:08:48.734Z,1.77
2023-12-11T08:11:20.100Z,1.73
2023-12-11T08:13:48.481Z,1.40
2023-12-11T08:16:17.505Z,1.20
2023-12-11T08:18:46.945Z,1.40
2023-12-11T08:21:15.563Z,1.30
2023-12-11T08:23:48.473Z,1.30
2023-12-11T08:26:20.520Z,2.00
2023-12-11T08:28:50.633Z,3.03
2023-12-11T08:31:22.187Z,3.60
2023-12-11T08:33:50.577Z,3.90
2023-12-11T08:36:18.786Z,2.55
2023-12-11T08:38:47.249Z,2.25
2023-12-11T08:41:15.602Z,2.88
2023-12-11T08:43:44.041Z,1.50
2023-12-11T08:46:12.730Z,1.27
2023-12-11T08:48:41.839Z,1.40
2023-12-11T08:51:10.071Z,1.23
2023-12-11T08:53:38.424Z,1.00
2023-12-11T08:56:06.746Z,1.10
2023-12-11T08:58:35.028Z,0.97
2023-12-11T09:01:05.492Z,1.00
2023-12-11T09:03:34.576Z,0.90
2023-12-11T09:06:03.711Z,1.20
2023-12-11T09:08:32.197Z,1.23
2023-12-11T09:11:00.254Z,1.83
2023-12-11T09:13:29.714Z,1.10
2023-12-11T09:15:59.080Z,1.30
2023-12-11T09:18:27.416Z,1.35
2023-12-11T09:20:55.878Z,1.33
2023-12-11T09:23:27.067Z,1.50
2023-12-11T09:25:55.342Z,1.20
2023-12-11T09:28:29.038Z,1.10
2023-12-11T09:31:00.145Z,1.25
2023-12-11T09:33:28.430Z,1.27
2023-12-11T09:35:57.477Z,1.30
2023-12-11T09:38:25.576Z,1.20
2023-12-11T09:40:53.793Z,1.27
2023-12-11T09:43:21.844Z,1.30
2023-12-11T09:45:52.655Z,1.40
2023-12-11T09:48:21.353Z,1.30
2023-12-11T09:50:49.612Z,1.35
2023-12-11T09:53:19.016Z,1.42
2023-12-11T09:55:47.279Z,1.35
2023-12-11T09:58:16.113Z,1.20
2023-12-11T10:00:44.583Z,1.30
2023-12-11T10:03:13.350Z,1.20
2023-12-11T10:05:41.664Z,1.30
2023-12-11T10:08:11.845Z,1.25
2023-12-11T10:10:40.477Z,1.50
2023-12-11T10:13:09.409Z,1.40
2023-12-11T10:15:38.143Z,1.50
2023-12-11T10:18:11.541Z,1.10
2023-12-11T10:20:41.573Z,1.30
2023-12-11T10:23:14.832Z,1.27
2023-12-11T10:25:44.682Z,1.53
2023-12-11T10:28:14.405Z,1.42
2023-12-11T10:30:53.142Z,1.50
2023-12-11T10:33:22.420Z,1.48
2023-12-11T10:35:51.127Z,1.40
2023-12-11T10:38:27.325Z,1.70
2023-12-11T10:40:57.146Z,1.50
2023-12-11T10:43:25.575Z,1.60
2023-12-11T10:45:54.008Z,1.38
2023-12-11T10:48:23.308Z,1.40
2023-12-11T10:50:51.895Z,1.60
2023-12-11T10:53:20.588Z,1.50
2023-12-11T10:55:51.586Z,1.45
2023-12-11T10:58:22.088Z,1.60
2023-12-11T11:00:50.449Z,1.48
2023-12-11T11:03:20.018Z,1.53
2023-12-11T11:05:51.037Z,1.35
2023-12-11T11:08:38.066Z,1.70
2023-12-11T11:11:09.314Z,1.50
2023-12-11T11:13:45.255Z,1.70
2023-12-11T11:16:13.766Z,1.60
2023-12-11T11:19:00.612Z,1.80
2023-12-11T11:21:29.215Z,2.08
2023-12-11T11:23:57.922Z,1.70
2023-12-11T11:26:36.900Z,1.60
2023-12-11T11:29:07.401Z,2.47
2023-12-11T11:31:55.941Z,2.50
2023-12-11T11:34:42.866Z,3.00
2023-12-11T11:37:19.488Z,3.08
2023-12-11T11:40:04.788Z,3.15
2023-12-11T11:42:37.211Z,3.80
2023-12-11T11:45:09.573Z,4.10
2023-12-11T11:47:38.442Z,4.65
2023-12-11T11:50:08.830Z,4.32
2023-12-11T11:52:39.189Z,4.85
2023-12-11T11:55:13.126Z,4.43
2023-12-11T11:57:42.434Z,4.80
2023-12-11T12:00:11.121Z,4.10
2023-12-11T12:02:39.267Z,3.47
2023-12-11T12:05:11.064Z,3.42
2023-12-11T12:07:44.072Z,3.03
2023-12-11T12:10:14.011Z,3.45
2023-12-11T12:12:42.481Z,2.60
2023-12-11T12:15:12.232Z,3.00
2023-12-11T12:17:41.115Z,2.70
2023-12-11T12:20:13.944Z,2.63
2023-12-11T12:22:57.365Z,2.10
2023-12-11T12:25:25.610Z,2.00
2023-12-11T12:27:54.374Z,2.33
2023-12-11T12:30:22.808Z,2.10
2023-12-11T12:32:52.331Z,2.30
2023-12-11T12:35:21.646Z,2.65
2023-12-11T12:37:50.991Z,2.45
2023-12-11T12:40:19.280Z,2.20
2023-12-11T12:42:47.975Z,2.28
2023-12-11T12:45:36.101Z,2.10
2023-12-11T12:48:06.748Z,2.05
2023-12-11T12:50:35.134Z,2.10
2023-12-11T12:53:12.510Z,2.03
2023-12-11T12:55:41.010Z,1.92
2023-12-11T12:58:10.383Z,2.10
2023-12-11T13:00:41.579Z,1.60
2023-12-11T13:03:10.059Z,1.50
2023-12-11T13:05:48.211Z,1.58
2023-12-11T13:08:16.703Z,1.77
2023-12-11T13:10:55.378Z,1.47
2023-12-11T13:13:28.501Z,1.70
2023-12-11T13:15:58.129Z,1.90
2023-12-11T13:18:26.841Z,1.48
2023-12-11T13:20:55.715Z,1.70
2023-12-11T13:23:25.768Z,3.53
2023-12-11T13:25:53.949Z,4.97
2023-12-11T13:28:22.554Z,1.88
2023-12-11T13:30:51.220Z,8.82
2023-12-11T13:33:19.355Z,2.05
2023-12-11T13:35:47.828Z,2.73
2023-12-11T13:38:16.017Z,1.73
2023-12-11T13:40:44.254Z,1.90
2023-12-11T13:43:13.453Z,2.10
2023-12-11T13:45:41.969Z,3.47
2023-12-11T13:48:10.516Z,1.50
2023-12-11T13:50:38.883Z,1.73
2023-12-11T13:53:07.327Z,12.10
2023-12-11T13:55:35.650Z,6.38
2023-12-11T13:58:07.023Z,5.88
2023-12-11T14:00:35.471Z,1.87
2023-12-11T14:03:04.880Z,5.75
2023-12-11T14:05:34.839Z,2.72
2023-12-11T14:08:05.160Z,3.53
2023-12-11T14:10:35.242Z,3.38
2023-12-11T14:13:03.642Z,4.40
2023-12-11T14:15:32.326Z,4.28
2023-12-11T14:18:00.698Z,2.20
2023-12-11T14:20:31.632Z,2.10
2023-12-11T14:23:00.085Z,4.78
2023-12-11T14:25:28.458Z,2.70
2023-12-11T14:28:02.462Z,3.42
2023-12-11T14:30:30.894Z,5.28
2023-12-11T14:32:59.099Z,5.75
2023-12-11T14:35:27.870Z,5.05
2023-12-11T14:37:56.167Z,9.83
2023-12-11T14:40:24.558Z,3.03
2023-12-11T14:42:52.940Z,2.90
2023-12-11T14:45:21.751Z,5.07
2023-12-11T14:47:50.267Z,2.10
2023-12-11T14:50:19.545Z,2.00
2023-12-11T14:52:47.952Z,2.17
2023-12-11T14:55:24.746Z,2.30
2023-12-11T14:57:54.910Z,2.72
2023-12-11T15:00:23.202Z,2.80
2023-12-11T15:02:51.497Z,2.03
2023-12-11T15:05:19.986Z,1.85
2023-12-11T15:07:48.554Z,2.00
2023-12-11T15:10:17.012Z,1.60
2023-12-11T15:12:45.618Z,2.20
2023-12-11T15:15:14.485Z,2.20
2023-12-11T15:17:43.341Z,2.50
2023-12-11T15:20:13.764Z,2.83
2023-12-11T15:22:43.368Z,1.90
2023-12-11T15:25:12.664Z,1.70
2023-12-11T15:27:40.954Z,1.73
2023-12-11T15:30:10.421Z,1.95
2023-12-11T15:32:39.225Z,1.70
2023-12-11T15:35:07.912Z,1.80
2023-12-11T15:37:36.463Z,3.38
2023-12-11T15:40:08.918Z,2.50
2023-12-11T15:42:39.485Z,2.00
2023-12-11T15:45:08.228Z,2.20
2023-12-11T15:47:59.884Z,1.80
2023-12-11T15:50:26.010Z,2.08
2023-12-11T15:52:55.108Z,2.37
2023-12-11T15:55:23.316Z,2.55
2023-12-11T15:57:53.320Z,2.58
2023-12-11T16:00:22.637Z,2.45
2023-12-11T16:02:51.373Z,2.13
2023-12-11T16:05:19.750Z,1.85
2023-12-11T16:07:48.013Z,2.17
2023-12-11T16:10:16.352Z,2.13
2023-12-11T16:12:44.827Z,2.35
2023-12-11T16:15:14.029Z,2.65
2023-12-11T16:17:42.243Z,2.30
2023-12-11T16:20:11.158Z,3.08
2023-12-11T16:22:39.633Z,2.60
2023-12-11T16:25:11.774Z,3.20
2023-12-11T16:27:41.371Z,3.20
2023-12-11T16:30:11.466Z,3.15
2023-12-11T16:32:39.828Z,2.80
2023-12-11T16:35:08.494Z,3.00
2023-12-11T16:37:36.934Z,3.30
2023-12-11T16:40:09.061Z,3.13
2023-12-11T16:42:37.984Z,2.92
2023-12-11T16:45:07.010Z,2.58
2023-12-11T16:47:35.811Z,3.63
2023-12-11T16:50:07.884Z,3.40
2023-12-11T16:52:37.608Z,4.07
2023-12-11T16:55:08.227Z,5.35
2023-12-11T16:57:36.434Z,5.80
2023-12-11T17:00:04.712Z,5.40
2023-12-11T17:02:33.333Z,4.40
2023-12-11T17:05:01.918Z,5.32
2023-12-11T17:07:30.345Z,6.30
2023-12-11T17:10:00.626Z,8.55
2023-12-11T17:12:30.159Z,8.95
2023-12-11T17:14:58.832Z,8.77
2023-12-11T17:17:27.783Z,8.85
2023-12-11T17:19:56.255Z,8.55
2023-12-11T17:22:25.085Z,9.13
2023-12-11T17:24:54.198Z,8.30
2023-12-11T17:27:22.549Z,8.87
2023-12-11T17:29:51.164Z,9.43
2023-12-11T17:32:19.484Z,7.82
2023-12-11T17:34:47.906Z,8.48
2023-12-11T17:37:16.384Z,13.10
2023-12-11T17:39:44.630Z,10.20
2023-12-11T17:42:13.500Z,9.02
2023-12-11T17:44:42.814Z,9.07
2023-12-11T17:47:11.987Z,8.45
2023-12-11T17:49:42.388Z,10.05
2023-12-11T17:52:12.538Z,11.23
2023-12-11T17:54:40.849Z,12.48
2023-12-11T17:57:11.169Z,7.70
2023-12-11T17:59:42.605Z,9.88
2023-12-11T18:02:15.486Z,10.85
2023-12-11T18:04:45.783Z,11.10
2023-12-11T18:07:14.284Z,10.98
2023-12-11T18:09:43.159Z,10.80
2023-12-11T18:12:12.986Z,12.38
2023-12-11T18:14:41.457Z,14.75
2023-12-11T18:17:09.853Z,10.63
2023-12-11T18:19:38.450Z,12.98
2023-12-11T18:22:07.997Z,12.52
2023-12-11T18:24:36.814Z,12.60
2023-12-11T18:27:05.041Z,10.80
2023-12-11T18:29:33.351Z,9.60
2023-12-11T18:32:01.690Z,10.40
2023-12-11T18:34:39.086Z,9.52
2023-12-11T18:37:12.071Z,9.95
2023-12-11T18:39:40.563Z,9.85
2023-12-11T18:42:08.881Z,12.23
2023-12-11T18:44:37.206Z,18.70
2023-12-11T18:47:05.817Z,13.07
2023-12-11T18:49:34.286Z,16.73
2023-12-11T18:52:02.936Z,17.65
2023-12-11T18:54:31.305Z,19.30
2023-12-11T18:56:59.595Z,15.27
2023-12-11T18:59:28.042Z,17.02
2023-12-11T19:01:56.778Z,31.80
2023-12-11T19:04:25.170Z,20.77
2023-12-11T19:06:53.571Z,15.40
2023-12-11T19:09:21.992Z,14.53
2023-12-11T19:11:52.397Z,13.38
2023-12-11T19:14:20.805Z,15.70
2023-12-11T19:16:48.976Z,11.70
2023-12-11T19:19:19.005Z,10.77
2023-12-11T19:21:47.932Z,10.77
2023-12-11T19:24:16.246Z,11.90
2023-12-11T19:26:44.696Z,11.73
2023-12-11T19:29:13.009Z,8.88
2023-12-11T19:31:44.488Z,12.80
2023-12-11T19:34:13.362Z,15.80
2023-12-11T19:36:43.422Z,14.20
2023-12-11T19:39:12.018Z,12.15
2023-12-11T19:41:43.345Z,10.30
2023-12-11T19:44:12.390Z,8.85
2023-12-11T19:46:45.967Z,10.40
2023-12-11T19:49:14.372Z,10.40
2023-12-11T19:51:44.888Z,8.68
2023-12-11T19:54:13.364Z,10.90
2023-12-11T19:56:42.760Z,9.07
2023-12-11T19:59:10.919Z,9.27
2023-12-11T20:01:39.233Z,12.43
2023-12-11T20:04:07.624Z,10.18
2023-12-11T20:06:35.847Z,21.20
2023-12-11T20:09:04.246Z,10.43
2023-12-11T20:11:33.502Z,8.57
2023-12-11T20:14:01.874Z,9.63
2023-12-11T20:16:30.908Z,40.55
2023-12-11T20:18:59.357Z,18.10
2023-12-11T20:21:27.644Z,17.75
2023-12-11T20:23:56.509Z,11.27
2023-12-11T20:26:24.876Z,11.10
2023-12-11T20:28:53.302Z,7.82
2023-12-11T20:31:21.767Z,6.93
2023-12-11T20:33:50.296Z,7.88
2023-12-11T20:36:19.344Z,6.87
2023-12-11T20:38:48.161Z,9.65
2023-12-11T20:41:22.922Z,27.23
2023-12-11T20:43:52.055Z,40.03
2023-12-11T20:46:25.265Z,43.55
2023-12-11T20:48:57.389Z,23.47
2023-12-11T20:51:26.058Z,20.45
2023-12-11T20:53:54.499Z,12.68
2023-12-11T20:56:31.805Z,9.10
2023-12-11T20:59:02.111Z,8.57
2023-12-11T21:01:31.100Z,8.00
2023-12-11T21:04:00.081Z,6.70
2023-12-11T21:06:28.918Z,6.25
2023-12-11T21:08:57.821Z,6.65
2023-12-11T21:11:26.691Z,5.80
2023-12-11T21:13:54.923Z,5.70
2023-12-11T21:16:23.444Z,6.28
2023-12-11T21:18:52.041Z,6.82
2023-12-11T21:21:21.319Z,6.45
2023-12-11T21:23:50.293Z,6.32
2023-12-11T21:26:22.233Z,6.47
2023-12-11T21:28:51.268Z,5.85
2023-12-11T21:31:20.639Z,5.65
2023-12-11T21:33:52.799Z,5.45
2023-12-11T21:36:25.242Z,5.07
2023-12-11T21:38:53.539Z,4.80
2023-12-11T21:41:21.904Z,4.70
2023-12-11T21:43:53.911Z,4.40
2023-12-11T21:46:22.764Z,4.15
2023-12-11T21:48:51.521Z,4.47
2023-12-11T21:51:20.932Z,4.70
2023-12-11T21:53:49.534Z,4.35
2023-12-11T21:56:17.785Z,4.82
2023-12-11T21:58:46.293Z,4.85
2023-12-11T22:01:14.616Z,4.40
2023-12-11T22:03:42.731Z,4.23
2023-12-11T22:06:15.064Z,4.70
2023-12-11T22:08:43.392Z,5.30
2023-12-11T22:11:18.524Z,5.00
2023-12-11T22:13:46.918Z,5.15
2023-12-11T22:16:18.836Z,6.47
2023-12-11T22:18:49.051Z,6.03
2023-12-11T22:21:24.741Z,5.50
2023-12-11T22:23:54.319Z,5.53
2023-12-11T22:26:23.009Z,5.85
2023-12-11T22:28:51.256Z,5.47
2023-12-11T22:31:30.695Z,5.45
2023-12-11T22:33:59.297Z,4.43
2023-12-11T22:36:27.872Z,3.90
2023-12-11T22:38:56.677Z,3.55
2023-12-11T22:41:28.742Z,3.67
2023-12-11T22:43:56.939Z,3.95
2023-12-11T22:46:25.316Z,3.85
2023-12-11T22:48:54.316Z,3.33
2023-12-11T22:51:24.374Z,3.10
2023-12-11T22:53:52.898Z,3.70
2023-12-11T22:56:21.047Z,3.40
2023-12-11T22:58:49.418Z,2.10
2023-12-11T23:01:17.807Z,1.50
2023-12-11T23:03:46.198Z,1.33
2023-12-11T23:06:14.762Z,1.48
2023-12-11T23:08:43.130Z,1.70
2023-12-11T23:11:11.469Z,2.00
2023-12-11T23:13:40.484Z,2.10
2023-12-11T23:16:09.379Z,2.00
2023-12-11T23:18:37.785Z,2.50
2023-12-11T23:21:06.131Z,2.87
2023-12-11T23:23:34.449Z,2.50
2023-12-11T23:26:05.210Z,3.10
2023-12-11T23:28:34.185Z,3.15
2023-12-11T23:31:02.815Z,3.15
2023-12-11T23:33:31.207Z,3.10
2023-12-11T23:35:59.924Z,3.25
2023-12-11T23:38:30.651Z,3.13
2023-12-11T23:41:00.078Z,3.00
2023-12-11T23:43:28.832Z,2.58
2023-12-11T23:45:58.412Z,2.47
2023-12-11T23:48:27.103Z,2.70
2023-12-11T23:50:55.483Z,3.10
2023-12-11T23:53:24.444Z,2.90
2023-12-11T23:55:52.984Z,3.47
2023-12-11T23:58:21.219Z,3.37
